sensor_id;sensor_type;location;lat;lon;timestamp;P1;durP1;ratioP1;P2;durP2;ratioP2
65567;SDS011;52211;50.154;8.682;2023-06-19T00:00:37;5.50;;;5.03;;
65567;SDS011;52211;50.154;8.682;2023-06-19T00:03:07;5.87;;;5.27;;
65567;SDS011;52211;50.154;8.682;2023-06-19T00:05:34;6.60;;;6.00;;
65567;SDS011;52211;50.154;8.682;2023-06-19T00:08:01;5.90;;;5.40;;
65567;SDS011;52211;50.154;8.682;2023-06-19T00:10:33;5.30;;;4.90;;
65567;SDS011;52211;50.154;8.682;2023-06-19T00:13:00;5.27;;;4.87;;
65567;SDS011;52211;50.154;8.682;2023-06-19T00:15:29;5.77;;;5.27;;
65567;SDS011;52211;50.154;8.682;2023-06-19T00:18:01;6.50;;;5.90;;
65567;SDS011;52211;50.154;8.682;2023-06-19T00:20:33;6.13;;;5.63;;
65567;SDS011;52211;50.154;8.682;2023-06-19T00:23:05;6.07;;;5.57;;
65567;SDS011;52211;50.154;8.682;2023-06-19T00:25:36;5.70;;;5.20;;
65567;SDS011;52211;50.154;8.682;2023-06-19T00:28:03;5.90;;;5.40;;
65567;SDS011;52211;50.154;8.682;2023-06-19T00:30:40;6.37;;;5.53;;
65567;SDS011;52211;50.154;8.682;2023-06-19T00:33:08;6.43;;;5.80;;
65567;SDS011;52211;50.154;8.682;2023-06-19T00:35:37;5.83;;;5.37;;
65567;SDS011;52211;50.154;8.682;2023-06-19T00:38:05;6.90;;;5.53;;
65567;SDS011;52211;50.154;8.682;2023-06-19T00:40:34;6.80;;;5.93;;
65567;SDS011;52211;50.154;8.682;2023-06-19T00:43:01;5.90;;;5.30;;
65567;SDS011;52211;50.154;8.682;2023-06-19T00:45:29;5.90;;;5.30;;
65567;SDS011;52211;50.154;8.682;2023-06-19T00:48:01;5.53;;;5.03;;
65567;SDS011;52211;50.154;8.682;2023-06-19T00:50:32;6.47;;;4.90;;
65567;SDS011;52211;50.154;8.682;2023-06-19T00:53:00;6.00;;;5.50;;
65567;SDS011;52211;50.154;8.682;2023-06-19T00:55:30;6.13;;;5.67;;
65567;SDS011;52211;50.154;8.682;2023-06-19T00:58:02;5.50;;;5.00;;
65567;SDS011;52211;50.154;8.682;2023-06-19T01:00:32;5.13;;;4.73;;
65567;SDS011;52211;50.154;8.682;2023-06-19T01:02:59;5.93;;;5.33;;
65567;SDS011;52211;50.154;8.682;2023-06-19T01:05:27;5.73;;;5.23;;
65567;SDS011;52211;50.154;8.682;2023-06-19T01:08:09;5.73;;;5.23;;
65567;SDS011;52211;50.154;8.682;2023-06-19T01:11:10;6.00;;;5.40;;
65567;SDS011;52211;50.154;8.682;2023-06-19T01:13:56;6.40;;;5.80;;
65567;SDS011;52211;50.154;8.682;2023-06-19T01:16:32;5.37;;;4.87;;
65567;SDS011;52211;50.154;8.682;2023-06-19T01:19:01;6.33;;;5.83;;
65567;SDS011;52211;50.154;8.682;2023-06-19T01:21:38;6.10;;;5.20;;
65567;SDS011;52211;50.154;8.682;2023-06-19T01:24:08;6.00;;;5.40;;
65567;SDS011;52211;50.154;8.682;2023-06-19T01:26:38;5.67;;;5.17;;
65567;SDS011;52211;50.154;8.682;2023-06-19T01:29:06;6.30;;;5.60;;
65567;SDS011;52211;50.154;8.682;2023-06-19T01:34:22;8.83;;;6.07;;
65567;SDS011;52211;50.154;8.682;2023-06-19T01:36:57;7.27;;;6.67;;
65567;SDS011;52211;50.154;8.682;2023-06-19T01:39:25;6.07;;;5.57;;
65567;SDS011;52211;50.154;8.682;2023-06-19T01:41:53;6.67;;;6.07;;
65567;SDS011;52211;50.154;8.682;2023-06-19T01:44:26;7.30;;;6.07;;
65567;SDS011;52211;50.154;8.682;2023-06-19T01:46:55;6.33;;;5.83;;
65567;SDS011;52211;50.154;8.682;2023-06-19T01:49:22;5.93;;;5.33;;
65567;SDS011;52211;50.154;8.682;2023-06-19T01:51:52;5.83;;;5.23;;
65567;SDS011;52211;50.154;8.682;2023-06-19T01:54:19;6.63;;;6.03;;
65567;SDS011;52211;50.154;8.682;2023-06-19T01:56:48;6.10;;;5.50;;
65567;SDS011;52211;50.154;8.682;2023-06-19T01:59:20;7.47;;;6.23;;
65567;SDS011;52211;50.154;8.682;2023-06-19T02:01:49;7.47;;;5.80;;
65567;SDS011;52211;50.154;8.682;2023-06-19T02:04:19;6.67;;;6.07;;
65567;SDS011;52211;50.154;8.682;2023-06-19T02:06:50;6.17;;;5.67;;
65567;SDS011;52211;50.154;8.682;2023-06-19T02:09:20;5.60;;;5.10;;
65567;SDS011;52211;50.154;8.682;2023-06-19T02:11:47;6.13;;;5.60;;
65567;SDS011;52211;50.154;8.682;2023-06-19T02:14:19;5.77;;;5.27;;
65567;SDS011;52211;50.154;8.682;2023-06-19T02:16:52;6.27;;;5.67;;
65567;SDS011;52211;50.154;8.682;2023-06-19T02:19:21;6.13;;;5.63;;
65567;SDS011;52211;50.154;8.682;2023-06-19T02:21:50;6.17;;;5.67;;
65567;SDS011;52211;50.154;8.682;2023-06-19T02:24:19;6.00;;;5.40;;
65567;SDS011;52211;50.154;8.682;2023-06-19T02:26:51;6.27;;;5.77;;
65567;SDS011;52211;50.154;8.682;2023-06-19T02:29:18;6.57;;;5.77;;
65567;SDS011;52211;50.154;8.682;2023-06-19T02:31:45;6.47;;;5.90;;
65567;SDS011;52211;50.154;8.682;2023-06-19T02:34:11;6.47;;;5.90;;
65567;SDS011;52211;50.154;8.682;2023-06-19T02:36:41;6.30;;;5.80;;
65567;SDS011;52211;50.154;8.682;2023-06-19T02:39:10;5.87;;;5.40;;
65567;SDS011;52211;50.154;8.682;2023-06-19T02:41:42;5.97;;;5.47;;
65567;SDS011;52211;50.154;8.682;2023-06-19T02:44:13;6.70;;;6.10;;
65567;SDS011;52211;50.154;8.682;2023-06-19T02:46:44;7.57;;;6.90;;
65567;SDS011;52211;50.154;8.682;2023-06-19T02:49:14;7.23;;;5.30;;
65567;SDS011;52211;50.154;8.682;2023-06-19T02:51:46;6.13;;;5.63;;
65567;SDS011;52211;50.154;8.682;2023-06-19T02:54:13;6.13;;;5.63;;
65567;SDS011;52211;50.154;8.682;2023-06-19T02:56:50;6.17;;;5.67;;
65567;SDS011;52211;50.154;8.682;2023-06-19T02:59:22;6.17;;;5.60;;
65567;SDS011;52211;50.154;8.682;2023-06-19T03:01:49;7.03;;;6.33;;
65567;SDS011;52211;50.154;8.682;2023-06-19T03:04:21;6.70;;;6.10;;
65567;SDS011;52211;50.154;8.682;2023-06-19T03:06:52;6.37;;;5.77;;
65567;SDS011;52211;50.154;8.682;2023-06-19T03:09:21;6.13;;;5.53;;
65567;SDS011;52211;50.154;8.682;2023-06-19T03:11:48;6.27;;;5.67;;
65567;SDS011;52211;50.154;8.682;2023-06-19T03:14:17;6.73;;;6.13;;
65567;SDS011;52211;50.154;8.682;2023-06-19T03:16:47;6.10;;;5.53;;
65567;SDS011;52211;50.154;8.682;2023-06-19T03:19:21;7.03;;;6.40;;
65567;SDS011;52211;50.154;8.682;2023-06-19T03:21:48;5.53;;;5.10;;
65567;SDS011;52211;50.154;8.682;2023-06-19T03:24:20;6.63;;;5.90;;
65567;SDS011;52211;50.154;8.682;2023-06-19T03:26:54;6.40;;;5.90;;
65567;SDS011;52211;50.154;8.682;2023-06-19T03:29:23;6.20;;;5.60;;
65567;SDS011;52211;50.154;8.682;2023-06-19T03:31:59;6.10;;;5.43;;
65567;SDS011;52211;50.154;8.682;2023-06-19T03:34:30;5.40;;;4.90;;
65567;SDS011;52211;50.154;8.682;2023-06-19T03:37:03;6.07;;;5.57;;
65567;SDS011;52211;50.154;8.682;2023-06-19T03:39:32;5.73;;;5.13;;
65567;SDS011;52211;50.154;8.682;2023-06-19T03:42:04;5.83;;;5.37;;
65567;SDS011;52211;50.154;8.682;2023-06-19T03:44:32;5.43;;;4.93;;
65567;SDS011;52211;50.154;8.682;2023-06-19T03:47:01;5.90;;;5.40;;
65567;SDS011;52211;50.154;8.682;2023-06-19T03:49:31;5.73;;;5.33;;
65567;SDS011;52211;50.154;8.682;2023-06-19T03:51:58;5.13;;;4.73;;
65567;SDS011;52211;50.154;8.682;2023-06-19T03:54:28;5.27;;;4.83;;
65567;SDS011;52211;50.154;8.682;2023-06-19T03:56:54;4.70;;;4.30;;
65567;SDS011;52211;50.154;8.682;2023-06-19T03:59:26;5.00;;;4.50;;
65567;SDS011;52211;50.154;8.682;2023-06-19T04:01:55;5.17;;;4.77;;
65567;SDS011;52211;50.154;8.682;2023-06-19T04:04:23;5.07;;;4.57;;
65567;SDS011;52211;50.154;8.682;2023-06-19T04:06:54;4.23;;;3.93;;
65567;SDS011;52211;50.154;8.682;2023-06-19T04:09:21;5.37;;;4.13;;
65567;SDS011;52211;50.154;8.682;2023-06-19T04:11:52;4.90;;;4.40;;
65567;SDS011;52211;50.154;8.682;2023-06-19T04:14:22;5.30;;;4.90;;
65567;SDS011;52211;50.154;8.682;2023-06-19T04:16:54;5.80;;;5.30;;
65567;SDS011;52211;50.154;8.682;2023-06-19T04:19:26;5.90;;;5.37;;
65567;SDS011;52211;50.154;8.682;2023-06-19T04:21:56;4.50;;;4.10;;
65567;SDS011;52211;50.154;8.682;2023-06-19T04:24:26;6.07;;;5.47;;
65567;SDS011;52211;50.154;8.682;2023-06-19T04:26:55;5.40;;;4.93;;
65567;SDS011;52211;50.154;8.682;2023-06-19T04:29:25;5.67;;;4.83;;
65567;SDS011;52211;50.154;8.682;2023-06-19T04:31:58;5.93;;;5.40;;
65567;SDS011;52211;50.154;8.682;2023-06-19T04:34:27;5.43;;;5.03;;
65567;SDS011;52211;50.154;8.682;2023-06-19T04:36:57;4.87;;;4.50;;
65567;SDS011;52211;50.154;8.682;2023-06-19T04:39:29;5.50;;;4.77;;
65567;SDS011;52211;50.154;8.682;2023-06-19T04:41:56;5.43;;;4.60;;
65567;SDS011;52211;50.154;8.682;2023-06-19T04:44:25;5.17;;;4.77;;
65567;SDS011;52211;50.154;8.682;2023-06-19T04:47:00;5.60;;;5.10;;
65567;SDS011;52211;50.154;8.682;2023-06-19T04:49:34;5.50;;;5.00;;
65567;SDS011;52211;50.154;8.682;2023-06-19T04:52:03;5.27;;;4.77;;
65567;SDS011;52211;50.154;8.682;2023-06-19T04:54:30;5.30;;;4.80;;
65567;SDS011;52211;50.154;8.682;2023-06-19T04:57:00;4.73;;;4.33;;
65567;SDS011;52211;50.154;8.682;2023-06-19T04:59:34;4.90;;;4.50;;
65567;SDS011;52211;50.154;8.682;2023-06-19T05:02:06;4.23;;;3.83;;
65567;SDS011;52211;50.154;8.682;2023-06-19T05:04:35;5.20;;;4.67;;
65567;SDS011;52211;50.154;8.682;2023-06-19T05:07:05;4.37;;;3.97;;
65567;SDS011;52211;50.154;8.682;2023-06-19T05:09:36;4.93;;;4.53;;
65567;SDS011;52211;50.154;8.682;2023-06-19T05:12:08;5.57;;;5.17;;
65567;SDS011;52211;50.154;8.682;2023-06-19T05:14:39;4.53;;;4.13;;
65567;SDS011;52211;50.154;8.682;2023-06-19T05:17:06;6.47;;;4.30;;
65567;SDS011;52211;50.154;8.682;2023-06-19T05:19:35;4.40;;;4.00;;
65567;SDS011;52211;50.154;8.682;2023-06-19T05:22:02;6.73;;;3.93;;
65567;SDS011;52211;50.154;8.682;2023-06-19T05:24:30;4.60;;;4.20;;
65567;SDS011;52211;50.154;8.682;2023-06-19T05:27:01;4.63;;;4.23;;
65567;SDS011;52211;50.154;8.682;2023-06-19T05:29:31;4.57;;;4.17;;
65567;SDS011;52211;50.154;8.682;2023-06-19T05:31:58;4.17;;;3.87;;
65567;SDS011;52211;50.154;8.682;2023-06-19T05:34:27;3.87;;;3.57;;
65567;SDS011;52211;50.154;8.682;2023-06-19T05:36:54;4.63;;;4.23;;
65567;SDS011;52211;50.154;8.682;2023-06-19T05:39:23;3.60;;;3.30;;
65567;SDS011;52211;50.154;8.682;2023-06-19T05:41:51;4.37;;;3.87;;
65567;SDS011;52211;50.154;8.682;2023-06-19T05:44:17;3.77;;;3.40;;
65567;SDS011;52211;50.154;8.682;2023-06-19T05:46:45;4.07;;;3.73;;
65567;SDS011;52211;50.154;8.682;2023-06-19T05:49:14;3.23;;;3.03;;
65567;SDS011;52211;50.154;8.682;2023-06-19T05:51:41;3.77;;;3.33;;
65567;SDS011;52211;50.154;8.682;2023-06-19T05:54:08;3.30;;;3.10;;
65567;SDS011;52211;50.154;8.682;2023-06-19T05:56:36;3.83;;;3.53;;
65567;SDS011;52211;50.154;8.682;2023-06-19T05:59:05;3.63;;;3.33;;
65567;SDS011;52211;50.154;8.682;2023-06-19T06:01:34;3.33;;;3.03;;
65567;SDS011;52211;50.154;8.682;2023-06-19T06:04:03;3.83;;;3.47;;
65567;SDS011;52211;50.154;8.682;2023-06-19T06:06:34;4.30;;;3.80;;
65567;SDS011;52211;50.154;8.682;2023-06-19T06:09:01;3.70;;;3.40;;
65567;SDS011;52211;50.154;8.682;2023-06-19T06:11:31;4.40;;;4.00;;
65567;SDS011;52211;50.154;8.682;2023-06-19T06:14:02;3.67;;;3.37;;
65567;SDS011;52211;50.154;8.682;2023-06-19T06:16:37;3.30;;;3.00;;
65567;SDS011;52211;50.154;8.682;2023-06-19T06:19:06;3.20;;;3.00;;
65567;SDS011;52211;50.154;8.682;2023-06-19T06:21:33;4.07;;;3.50;;
65567;SDS011;52211;50.154;8.682;2023-06-19T06:24:02;3.43;;;3.13;;
65567;SDS011;52211;50.154;8.682;2023-06-19T06:26:32;3.07;;;2.77;;
65567;SDS011;52211;50.154;8.682;2023-06-19T06:29:05;3.00;;;2.80;;
65567;SDS011;52211;50.154;8.682;2023-06-19T06:31:37;2.87;;;2.63;;
65567;SDS011;52211;50.154;8.682;2023-06-19T06:34:06;3.37;;;3.07;;
65567;SDS011;52211;50.154;8.682;2023-06-19T06:36:33;2.87;;;2.67;;
65567;SDS011;52211;50.154;8.682;2023-06-19T06:39:06;2.87;;;2.67;;
65567;SDS011;52211;50.154;8.682;2023-06-19T06:41:35;3.00;;;2.80;;
65567;SDS011;52211;50.154;8.682;2023-06-19T06:44:04;3.07;;;2.87;;
65567;SDS011;52211;50.154;8.682;2023-06-19T06:46:33;3.20;;;2.90;;
65567;SDS011;52211;50.154;8.682;2023-06-19T06:49:05;3.27;;;2.97;;
65567;SDS011;52211;50.154;8.682;2023-06-19T06:51:32;2.87;;;2.67;;
65567;SDS011;52211;50.154;8.682;2023-06-19T06:54:01;2.73;;;2.53;;
65567;SDS011;52211;50.154;8.682;2023-06-19T06:56:30;3.73;;;3.00;;
65567;SDS011;52211;50.154;8.682;2023-06-19T06:58:59;3.40;;;3.07;;
65567;SDS011;52211;50.154;8.682;2023-06-19T07:01:28;3.70;;;3.37;;
65567;SDS011;52211;50.154;8.682;2023-06-19T07:03:55;3.03;;;2.77;;
65567;SDS011;52211;50.154;8.682;2023-06-19T07:06:22;4.37;;;2.97;;
65567;SDS011;52211;50.154;8.682;2023-06-19T07:08:56;2.73;;;2.60;;
65567;SDS011;52211;50.154;8.682;2023-06-19T07:11:23;3.30;;;3.00;;
65567;SDS011;52211;50.154;8.682;2023-06-19T07:13:50;3.63;;;3.10;;
65567;SDS011;52211;50.154;8.682;2023-06-19T07:16:19;2.93;;;2.57;;
65567;SDS011;52211;50.154;8.682;2023-06-19T07:18:53;4.97;;;3.17;;
65567;SDS011;52211;50.154;8.682;2023-06-19T07:21:23;4.43;;;2.90;;
65567;SDS011;52211;50.154;8.682;2023-06-19T07:23:54;6.40;;;3.53;;
65567;SDS011;52211;50.154;8.682;2023-06-19T07:26:21;3.53;;;3.23;;
65567;SDS011;52211;50.154;8.682;2023-06-19T07:28:50;3.00;;;2.37;;
65567;SDS011;52211;50.154;8.682;2023-06-19T07:31:19;3.37;;;2.93;;
65567;SDS011;52211;50.154;8.682;2023-06-19T07:33:49;3.23;;;2.70;;
65567;SDS011;52211;50.154;8.682;2023-06-19T07:36:16;3.07;;;2.80;;
65567;SDS011;52211;50.154;8.682;2023-06-19T07:38:46;2.53;;;2.33;;
65567;SDS011;52211;50.154;8.682;2023-06-19T07:41:17;2.50;;;2.30;;
65567;SDS011;52211;50.154;8.682;2023-06-19T07:43:44;2.60;;;2.40;;
65567;SDS011;52211;50.154;8.682;2023-06-19T07:46:16;2.80;;;2.60;;
65567;SDS011;52211;50.154;8.682;2023-06-19T07:48:45;2.37;;;2.27;;
65567;SDS011;52211;50.154;8.682;2023-06-19T07:51:14;2.70;;;2.50;;
65567;SDS011;52211;50.154;8.682;2023-06-19T07:53:41;2.77;;;2.60;;
65567;SDS011;52211;50.154;8.682;2023-06-19T07:56:10;5.00;;;2.97;;
65567;SDS011;52211;50.154;8.682;2023-06-19T07:58:37;3.77;;;2.77;;
65567;SDS011;52211;50.154;8.682;2023-06-19T08:01:04;3.10;;;2.50;;
65567;SDS011;52211;50.154;8.682;2023-06-19T08:03:34;3.90;;;2.47;;
65567;SDS011;52211;50.154;8.682;2023-06-19T08:06:04;2.87;;;2.57;;
65567;SDS011;52211;50.154;8.682;2023-06-19T08:08:33;2.57;;;2.37;;
65567;SDS011;52211;50.154;8.682;2023-06-19T08:11:04;3.37;;;3.07;;
65567;SDS011;52211;50.154;8.682;2023-06-19T08:13:37;3.83;;;3.37;;
65567;SDS011;52211;50.154;8.682;2023-06-19T08:16:06;2.93;;;2.73;;
65567;SDS011;52211;50.154;8.682;2023-06-19T08:18:36;3.10;;;2.50;;
65567;SDS011;52211;50.154;8.682;2023-06-19T08:21:03;3.03;;;2.73;;
65567;SDS011;52211;50.154;8.682;2023-06-19T08:23:30;3.40;;;2.43;;
65567;SDS011;52211;50.154;8.682;2023-06-19T08:26:01;2.70;;;2.50;;
65567;SDS011;52211;50.154;8.682;2023-06-19T08:28:28;2.80;;;2.60;;
65567;SDS011;52211;50.154;8.682;2023-06-19T08:30:58;3.40;;;3.10;;
65567;SDS011;52211;50.154;8.682;2023-06-19T08:33:27;2.93;;;2.67;;
65567;SDS011;52211;50.154;8.682;2023-06-19T08:35:54;2.70;;;2.50;;
65567;SDS011;52211;50.154;8.682;2023-06-19T08:38:23;4.30;;;2.47;;
65567;SDS011;52211;50.154;8.682;2023-06-19T08:40:50;2.93;;;2.60;;
65567;SDS011;52211;50.154;8.682;2023-06-19T08:43:17;3.37;;;2.87;;
65567;SDS011;52211;50.154;8.682;2023-06-19T08:45:52;3.00;;;2.70;;
65567;SDS011;52211;50.154;8.682;2023-06-19T08:48:41;3.00;;;2.80;;
65567;SDS011;52211;50.154;8.682;2023-06-19T08:51:15;3.50;;;3.20;;
65567;SDS011;52211;50.154;8.682;2023-06-19T08:53:49;2.87;;;2.67;;
65567;SDS011;52211;50.154;8.682;2023-06-19T08:56:27;3.20;;;2.87;;
65567;SDS011;52211;50.154;8.682;2023-06-19T08:58:53;3.10;;;2.90;;
65567;SDS011;52211;50.154;8.682;2023-06-19T09:01:27;2.67;;;2.50;;
65567;SDS011;52211;50.154;8.682;2023-06-19T09:03:59;3.20;;;2.90;;
65567;SDS011;52211;50.154;8.682;2023-06-19T09:06:28;3.00;;;2.80;;
65567;SDS011;52211;50.154;8.682;2023-06-19T09:08:58;2.53;;;2.33;;
65567;SDS011;52211;50.154;8.682;2023-06-19T09:11:26;4.73;;;2.73;;
65567;SDS011;52211;50.154;8.682;2023-06-19T09:13:57;2.63;;;2.33;;
65567;SDS011;52211;50.154;8.682;2023-06-19T09:16:26;3.63;;;3.33;;
65567;SDS011;52211;50.154;8.682;2023-06-19T09:19:19;2.83;;;2.63;;
65567;SDS011;52211;50.154;8.682;2023-06-19T09:21:47;3.67;;;2.67;;
65567;SDS011;52211;50.154;8.682;2023-06-19T09:24:18;2.60;;;2.43;;
65567;SDS011;52211;50.154;8.682;2023-06-19T09:26:50;2.90;;;2.70;;
65567;SDS011;52211;50.154;8.682;2023-06-19T09:29:31;2.87;;;2.67;;
65567;SDS011;52211;50.154;8.682;2023-06-19T09:34:50;2.80;;;2.60;;
65567;SDS011;52211;50.154;8.682;2023-06-19T09:37:22;2.80;;;2.60;;
65567;SDS011;52211;50.154;8.682;2023-06-19T09:40:03;3.20;;;2.90;;
65567;SDS011;52211;50.154;8.682;2023-06-19T09:42:40;2.60;;;2.40;;
65567;SDS011;52211;50.154;8.682;2023-06-19T09:45:28;2.93;;;2.73;;
65567;SDS011;52211;50.154;8.682;2023-06-19T09:47:59;3.27;;;2.97;;
65567;SDS011;52211;50.154;8.682;2023-06-19T09:50:43;3.67;;;3.33;;
65567;SDS011;52211;50.154;8.682;2023-06-19T09:53:14;3.60;;;3.03;;
65567;SDS011;52211;50.154;8.682;2023-06-19T09:55:42;3.17;;;2.87;;
65567;SDS011;52211;50.154;8.682;2023-06-19T09:58:12;5.30;;;3.27;;
65567;SDS011;52211;50.154;8.682;2023-06-19T10:00:43;3.43;;;3.13;;
65567;SDS011;52211;50.154;8.682;2023-06-19T10:03:12;3.00;;;2.80;;
65567;SDS011;52211;50.154;8.682;2023-06-19T10:05:43;2.90;;;2.70;;
65567;SDS011;52211;50.154;8.682;2023-06-19T10:08:10;3.47;;;3.20;;
65567;SDS011;52211;50.154;8.682;2023-06-19T10:10:48;3.33;;;3.03;;
65567;SDS011;52211;50.154;8.682;2023-06-19T10:13:19;2.73;;;2.50;;
65567;SDS011;52211;50.154;8.682;2023-06-19T10:15:46;2.67;;;2.47;;
65567;SDS011;52211;50.154;8.682;2023-06-19T10:18:16;3.47;;;2.83;;
65567;SDS011;52211;50.154;8.682;2023-06-19T10:20:53;3.37;;;3.07;;
65567;SDS011;52211;50.154;8.682;2023-06-19T10:23:22;4.63;;;2.90;;
65567;SDS011;52211;50.154;8.682;2023-06-19T10:25:59;3.53;;;3.23;;
65567;SDS011;52211;50.154;8.682;2023-06-19T10:28:30;3.40;;;2.87;;
65567;SDS011;52211;50.154;8.682;2023-06-19T10:31:02;3.97;;;2.47;;
65567;SDS011;52211;50.154;8.682;2023-06-19T10:33:36;3.00;;;2.80;;
65567;SDS011;52211;50.154;8.682;2023-06-19T10:36:16;2.83;;;2.63;;
65567;SDS011;52211;50.154;8.682;2023-06-19T10:38:45;3.00;;;2.80;;
65567;SDS011;52211;50.154;8.682;2023-06-19T10:44:00;3.07;;;2.87;;
65567;SDS011;52211;50.154;8.682;2023-06-19T10:46:37;3.53;;;2.63;;
65567;SDS011;52211;50.154;8.682;2023-06-19T10:49:10;2.93;;;2.73;;
65567;SDS011;52211;50.154;8.682;2023-06-19T10:51:40;3.17;;;2.87;;
65567;SDS011;52211;50.154;8.682;2023-06-19T10:54:10;3.37;;;3.07;;
65567;SDS011;52211;50.154;8.682;2023-06-19T10:56:39;2.40;;;2.30;;
65567;SDS011;52211;50.154;8.682;2023-06-19T10:59:07;2.70;;;2.50;;
65567;SDS011;52211;50.154;8.682;2023-06-19T11:01:37;2.93;;;2.73;;
65567;SDS011;52211;50.154;8.682;2023-06-19T11:04:10;3.80;;;3.03;;
65567;SDS011;52211;50.154;8.682;2023-06-19T11:06:39;3.17;;;2.97;;
65567;SDS011;52211;50.154;8.682;2023-06-19T11:09:10;2.70;;;2.50;;
65567;SDS011;52211;50.154;8.682;2023-06-19T11:11:40;4.37;;;2.80;;
65567;SDS011;52211;50.154;8.682;2023-06-19T11:14:09;2.50;;;2.40;;
65567;SDS011;52211;50.154;8.682;2023-06-19T11:16:44;2.60;;;2.40;;
65567;SDS011;52211;50.154;8.682;2023-06-19T11:19:20;2.40;;;2.30;;
65567;SDS011;52211;50.154;8.682;2023-06-19T11:22:02;3.27;;;3.07;;
65567;SDS011;52211;50.154;8.682;2023-06-19T11:24:29;3.87;;;2.77;;
65567;SDS011;52211;50.154;8.682;2023-06-19T11:26:59;2.93;;;2.73;;
65567;SDS011;52211;50.154;8.682;2023-06-19T11:29:31;2.97;;;2.77;;
65567;SDS011;52211;50.154;8.682;2023-06-19T11:34:44;2.57;;;2.47;;
65567;SDS011;52211;50.154;8.682;2023-06-19T11:37:15;3.03;;;2.70;;
65567;SDS011;52211;50.154;8.682;2023-06-19T11:39:47;3.20;;;3.00;;
65567;SDS011;52211;50.154;8.682;2023-06-19T11:42:19;4.37;;;4.00;;
65567;SDS011;52211;50.154;8.682;2023-06-19T11:44:56;4.03;;;2.70;;
65567;SDS011;52211;50.154;8.682;2023-06-19T11:47:32;3.50;;;2.77;;
65567;SDS011;52211;50.154;8.682;2023-06-19T11:50:03;3.20;;;3.00;;
65567;SDS011;52211;50.154;8.682;2023-06-19T11:52:35;2.20;;;2.10;;
65567;SDS011;52211;50.154;8.682;2023-06-19T11:55:02;4.90;;;2.47;;
65567;SDS011;52211;50.154;8.682;2023-06-19T11:57:29;4.30;;;2.60;;
65567;SDS011;52211;50.154;8.682;2023-06-19T11:59:56;2.67;;;2.50;;
65567;SDS011;52211;50.154;8.682;2023-06-19T12:02:25;2.30;;;2.20;;
65567;SDS011;52211;50.154;8.682;2023-06-19T12:04:57;2.70;;;2.50;;
65567;SDS011;52211;50.154;8.682;2023-06-19T12:07:24;2.57;;;2.40;;
65567;SDS011;52211;50.154;8.682;2023-06-19T12:09:54;2.90;;;2.70;;
65567;SDS011;52211;50.154;8.682;2023-06-19T12:12:23;3.00;;;2.70;;
65567;SDS011;52211;50.154;8.682;2023-06-19T12:14:55;2.37;;;2.20;;
65567;SDS011;52211;50.154;8.682;2023-06-19T12:17:24;2.80;;;2.60;;
65567;SDS011;52211;50.154;8.682;2023-06-19T12:19:53;2.73;;;2.53;;
65567;SDS011;52211;50.154;8.682;2023-06-19T12:22:23;2.60;;;2.40;;
65567;SDS011;52211;50.154;8.682;2023-06-19T12:24:49;2.87;;;2.60;;
65567;SDS011;52211;50.154;8.682;2023-06-19T12:27:16;2.90;;;2.70;;
65567;SDS011;52211;50.154;8.682;2023-06-19T12:29:43;2.37;;;2.17;;
65567;SDS011;52211;50.154;8.682;2023-06-19T12:32:12;2.87;;;2.67;;
65567;SDS011;52211;50.154;8.682;2023-06-19T12:34:42;3.10;;;2.93;;
65567;SDS011;52211;50.154;8.682;2023-06-19T12:37:15;2.40;;;2.30;;
65567;SDS011;52211;50.154;8.682;2023-06-19T12:39:47;2.88;;;2.67;;
65567;SDS011;52211;50.154;8.682;2023-06-19T12:42:18;3.00;;;2.80;;
65567;SDS011;52211;50.154;8.682;2023-06-19T12:44:45;3.00;;;2.80;;
65567;SDS011;52211;50.154;8.682;2023-06-19T12:47:17;9.07;;;3.07;;
65567;SDS011;52211;50.154;8.682;2023-06-19T12:49:44;2.90;;;2.70;;
65567;SDS011;52211;50.154;8.682;2023-06-19T12:52:14;3.15;;;2.95;;
65567;SDS011;52211;50.154;8.682;2023-06-19T12:54:43;2.77;;;2.57;;
65567;SDS011;52211;50.154;8.682;2023-06-19T12:57:15;2.00;;;1.90;;
65567;SDS011;52211;50.154;8.682;2023-06-19T12:59:41;5.15;;;3.10;;
65567;SDS011;52211;50.154;8.682;2023-06-19T13:02:11;2.65;;;2.45;;
65567;SDS011;52211;50.154;8.682;2023-06-19T13:04:41;2.45;;;2.25;;
65567;SDS011;52211;50.154;8.682;2023-06-19T13:07:08;2.70;;;2.50;;
65567;SDS011;52211;50.154;8.682;2023-06-19T13:09:39;2.80;;;2.60;;
65567;SDS011;52211;50.154;8.682;2023-06-19T13:12:07;3.07;;;2.87;;
65567;SDS011;52211;50.154;8.682;2023-06-19T13:14:34;2.70;;;2.50;;
65567;SDS011;52211;50.154;8.682;2023-06-19T13:17:01;2.63;;;2.45;;
65567;SDS011;52211;50.154;8.682;2023-06-19T13:19:31;3.22;;;2.80;;
65567;SDS011;52211;50.154;8.682;2023-06-19T13:22:02;2.83;;;2.60;;
65567;SDS011;52211;50.154;8.682;2023-06-19T13:24:29;2.90;;;2.60;;
65567;SDS011;52211;50.154;8.682;2023-06-19T13:26:59;2.70;;;2.50;;
65567;SDS011;52211;50.154;8.682;2023-06-19T13:29:29;2.63;;;2.43;;
65567;SDS011;52211;50.154;8.682;2023-06-19T13:31:56;2.93;;;2.60;;
65567;SDS011;52211;50.154;8.682;2023-06-19T13:34:25;2.17;;;2.07;;
65567;SDS011;52211;50.154;8.682;2023-06-19T13:36:57;3.40;;;2.30;;
65567;SDS011;52211;50.154;8.682;2023-06-19T13:39:24;2.47;;;2.27;;
65567;SDS011;52211;50.154;8.682;2023-06-19T13:41:53;2.53;;;2.33;;
65567;SDS011;52211;50.154;8.682;2023-06-19T13:44:23;2.30;;;2.10;;
65567;SDS011;52211;50.154;8.682;2023-06-19T13:46:50;2.20;;;2.10;;
65567;SDS011;52211;50.154;8.682;2023-06-19T13:49:20;2.77;;;2.10;;
65567;SDS011;52211;50.154;8.682;2023-06-19T13:51:59;2.50;;;2.30;;
65567;SDS011;52211;50.154;8.682;2023-06-19T13:54:30;2.20;;;2.10;;
65567;SDS011;52211;50.154;8.682;2023-06-19T13:57:00;3.70;;;2.20;;
65567;SDS011;52211;50.154;8.682;2023-06-19T13:59:27;2.37;;;2.17;;
65567;SDS011;52211;50.154;8.682;2023-06-19T14:01:53;3.57;;;2.20;;
65567;SDS011;52211;50.154;8.682;2023-06-19T14:04:23;2.17;;;2.07;;
65567;SDS011;52211;50.154;8.682;2023-06-19T14:06:58;2.57;;;2.37;;
65567;SDS011;52211;50.154;8.682;2023-06-19T14:09:24;2.80;;;2.27;;
65567;SDS011;52211;50.154;8.682;2023-06-19T14:11:51;2.50;;;2.30;;
65567;SDS011;52211;50.154;8.682;2023-06-19T14:14:20;2.73;;;2.53;;
65567;SDS011;52211;50.154;8.682;2023-06-19T14:16:50;2.20;;;2.07;;
65567;SDS011;52211;50.154;8.682;2023-06-19T14:19:21;2.20;;;1.97;;
65567;SDS011;52211;50.154;8.682;2023-06-19T14:21:51;3.60;;;2.50;;
65567;SDS011;52211;50.154;8.682;2023-06-19T14:24:20;2.27;;;2.07;;
65567;SDS011;52211;50.154;8.682;2023-06-19T14:26:50;1.93;;;1.83;;
65567;SDS011;52211;50.154;8.682;2023-06-19T14:29:17;3.13;;;2.23;;
65567;SDS011;52211;50.154;8.682;2023-06-19T14:31:47;2.30;;;2.07;;
65567;SDS011;52211;50.154;8.682;2023-06-19T14:34:18;2.33;;;2.03;;
65567;SDS011;52211;50.154;8.682;2023-06-19T14:36:48;2.03;;;1.93;;
65567;SDS011;52211;50.154;8.682;2023-06-19T14:39:15;2.17;;;2.00;;
65567;SDS011;52211;50.154;8.682;2023-06-19T14:41:47;2.50;;;2.33;;
65567;SDS011;52211;50.154;8.682;2023-06-19T14:44:14;2.10;;;2.00;;
65567;SDS011;52211;50.154;8.682;2023-06-19T14:46:41;2.23;;;2.03;;
65567;SDS011;52211;50.154;8.682;2023-06-19T14:49:11;2.05;;;1.95;;
65567;SDS011;52211;50.154;8.682;2023-06-19T14:51:43;3.05;;;2.47;;
65567;SDS011;52211;50.154;8.682;2023-06-19T14:54:13;2.17;;;1.98;;
65567;SDS011;52211;50.154;8.682;2023-06-19T14:56:44;2.20;;;2.10;;
65567;SDS011;52211;50.154;8.682;2023-06-19T14:59:15;2.00;;;1.90;;
65567;SDS011;52211;50.154;8.682;2023-06-19T15:01:42;2.10;;;2.00;;
65567;SDS011;52211;50.154;8.682;2023-06-19T15:04:16;2.13;;;1.98;;
65567;SDS011;52211;50.154;8.682;2023-06-19T15:06:46;2.00;;;1.90;;
65567;SDS011;52211;50.154;8.682;2023-06-19T15:09:16;2.03;;;1.92;;
65567;SDS011;52211;50.154;8.682;2023-06-19T15:11:45;2.38;;;2.10;;
65567;SDS011;52211;50.154;8.682;2023-06-19T15:14:16;1.90;;;1.70;;
65567;SDS011;52211;50.154;8.682;2023-06-19T15:16:48;2.13;;;1.92;;